Latest Weather Observations for Sheoaks

IDV60901

Issued at 11:41 pm EDT Monday 25 January 2021 (issued every 10 minutes, with the page automatically refreshed every 10 minutes)

About weather observations | Map of Melbourne area stations | Latest observations for Melbourne area | Other Formats
Station Details ID: 087168 Name: SHEOAKS Lat: -37.91 Lon: 144.13 Height: 236.7 m
Data from the previous 72 hours. | See also: Recent months at Sheoaks
Date/Time
EDT
Temp
°C
App
Temp
°C
Dew
Point
°C
Rel
Hum
%
Delta-T
°C
Wind Press
QNH
hPa
Press
MSL
hPa
Rain since
9am
mm
Dir  Spd
km/h
Gust
km/h
Spd
kts
Gust
kts
25/11:30pm 19.3 19.1 15.8 80 2.1 NNE 11 15 6 8 999.7 998.9 0.2
25/11:00pm 18.8 18.9 16.6 87 1.3 N 11 15 6 8 1000.7 999.9 0.2
25/10:30pm 18.6 19.0 16.4 87 1.3 NNE 9 11 5 6 1000.7 999.9 0.2
25/10:00pm 18.9 19.8 16.5 86 1.5 NNE 7 9 4 5 1001.4 1000.6 0.2
25/09:30pm 19.5 21.6 16.3 82 1.9 CALM 0 2 0 1 1001.8 1001.0 0.0
25/09:00pm 19.3 19.5 15.8 80 2.1 E 9 11 5 6 1001.5 1000.7 0.0
25/08:30pm 20.2 20.7 15.0 72 3.1 ESE 6 9 3 5 1001.8 1001.0 0.0
25/08:00pm 20.8 20.5 14.5 67 3.7 ESE 9 15 5 8 1000.7 999.9 0.0
25/07:30pm 22.2 22.2 14.3 61 4.7 SSE 7 11 4 6 1000.6 999.8 0.0
25/07:00pm 23.1 22.0 14.4 58 5.2 E 13 17 7 9 999.2 998.4 0.0
25/06:30pm 23.9 22.9 14.6 56 5.6 SE 13 17 7 9 999.3 998.5 0.0
25/06:00pm 24.8 23.9 14.9 54 6.0 ESE 13 19 7 10 999.9 999.1 0.0
25/05:30pm 24.6 23.9 14.4 53 6.1 SE 11 15 6 8 1000.6 999.8 0.0
25/05:00pm 25.5 24.8 14.3 50 6.8 SSE 11 19 6 10 1000.8 1000.0 0.0
25/04:30pm 26.2 25.8 15.3 51 6.7 SE 11 17 6 9 1000.8 1000.0 0.0
25/04:00pm 25.7 25.0 14.2 49 6.9 S 11 17 6 9 1001.1 1000.3 0.0
25/03:30pm 26.1 24.8 13.6 46 7.4 SE 13 19 7 10 1000.3 999.5 0.0
25/03:00pm 27.1 25.2 14.1 44 7.9 ESE 17 20 9 11 1000.1 999.3 0.0
25/02:30pm 28.2 26.9 13.7 41 8.7 ESE 13 20 7 11 1000.4 999.6 0.0
25/02:00pm 31.3 30.9 11.1 29 11.9 ESE 4 7 2 4 1000.3 999.5 0.0
25/01:30pm 30.9 29.3 10.3 28 11.9 SSW 9 13 5 7 1000.8 1000.0 0.0
25/01:00pm 31.0 28.5 10.9 29 11.7 SW 15 24 8 13 1001.1 1000.3 0.0
25/12:30pm 32.6 28.4 7.4 21 14.0 SW 19 32 10 17 1001.2 1000.4 0.0
25/12:00pm 33.2 30.6 7.9 21 14.2 WSW 11 20 6 11 1001.0 1000.2 0.0
25/11:30am 34.4 30.4 8.2 20 14.8 W 19 39 10 21 1000.8 1000.0 0.0
25/11:20am 36.3 30.2 6.5 16 16.6 NNW 28 50 15 27 1000.5 999.7 0.0
25/11:00am 35.4 33.9 10.4 22 14.8 WNW 9 26 5 14 1000.8 1000.0 0.0
25/10:30am 34.6 31.8 8.4 20 14.9 WSW 13 35 7 19 1001.4 1000.6 0.0
25/10:00am 35.1 30.8 8.0 19 15.4 NNW 20 37 11 20 1001.2 1000.4 0.0
25/09:30am 32.2 27.5 7.8 22 13.6 NNW 22 37 12 20 1001.5 1000.7 0.0
25/09:00am 32.0 27.6 7.6 22 13.6 NNW 20 37 11 20 1001.6 1000.8 0.0
25/08:30am 30.8 26.4 7.3 23 12.9 NNW 20 32 11 17 1001.6 1000.8 0.0
25/08:00am 29.8 25.2 6.5 23 12.6 NNW 20 33 11 18 1001.4 1000.6 0.0
25/07:30am 28.6 24.0 5.5 23 12.2 N 19 26 10 14 1001.2 1000.4 0.0
25/07:00am 29.1 24.2 5.2 22 12.6 N 20 30 11 16 1001.2 1000.4 0.0
25/06:30am 29.7 24.7 4.4 20 13.1 N 20 30 11 16 1001.1 1000.3 0.0
25/06:00am 30.0 24.9 3.9 19 13.5 N 20 33 11 18 1001.0 1000.2 0.0
25/05:30am 31.3 23.8 3.4 17 14.4 N 32 46 17 25 1000.9 1000.1 0.0
25/05:17am 31.2 24.4 3.3 17 14.4 N 28 48 15 26 1000.9 1000.1 0.0
25/05:00am 31.5 24.8 3.5 17 14.6 N 28 41 15 22 1000.9 1000.1 0.0
25/04:30am 30.0 24.6 4.6 20 13.3 N 22 32 12 17 1001.0 1000.2 0.0
25/04:00am 29.4 24.2 5.5 22 12.7 N 22 33 12 18 1001.4 1000.6 0.0
25/03:30am 28.6 23.9 6.1 24 12.0 N 20 30 11 16 1001.6 1000.8 0.0
25/03:00am 27.9 23.5 6.6 26 11.4 N 19 24 10 13 1001.8 1001.0 0.0
25/02:30am 28.1 23.2 6.8 26 11.4 N 22 32 12 17 1002.0 1001.2 0.0
25/02:00am 27.4 23.0 7.3 28 10.9 N 20 26 11 14 1002.3 1001.6 0.0
25/01:30am 26.8 22.4 7.3 29 10.5 N 20 26 11 14 1002.6 1001.9 0.0
25/01:00am 27.0 22.6 7.5 29 10.6 N 20 26 11 14 1003.1 1002.3 0.0
25/12:30am 26.9 22.5 7.4 29 10.5 N 20 26 11 14 1003.4 1002.6 0.0
25/12:00am 27.5 23.1 7.4 28 10.9 N 20 26 11 14 1003.7 1002.9 0.0
 
Date/Time
EDT
Temp
°C
App
Temp
°C
Dew
Point
°C
Rel
Hum
%
Delta-T
°C
Wind Press
QNH
hPa
Press
MSL
hPa
Rain since
9am
mm
Dir  Spd
km/h
Gust
km/h
Spd
kts
Gust
kts
24/11:30pm 27.1 23.0 8.0 30 10.4 N 19 24 10 13 1004.0 1003.2 0.0
24/11:00pm 27.1 24.0 9.0 32 10.1 N 15 19 8 10 1004.4 1003.6 0.0
24/10:30pm 26.9 24.9 10.2 35 9.4 NNE 11 15 6 8 1004.7 1003.9 0.0
24/10:00pm 28.6 26.0 10.8 33 10.3 NE 15 19 8 10 1004.9 1004.1 0.0
24/09:30pm 28.7 26.1 10.8 33 10.3 NE 15 17 8 9 1005.1 1004.3 0.0
24/09:00pm 28.0 25.9 11.1 35 9.8 NE 13 15 7 8 1005.3 1004.5 0.0
24/08:30pm 29.6 28.0 11.6 33 10.5 ENE 11 13 6 7 1005.4 1004.6 0.0
24/08:00pm 33.2 31.0 7.9 21 14.2 NNE 9 13 5 7 1005.4 1004.6 0.0
24/07:30pm 35.2 32.3 6.5 17 15.9 N 11 17 6 9 1005.5 1004.7 0.0
24/07:00pm 35.7 32.9 6.9 17 16.1 N 11 15 6 8 1005.4 1004.6 0.0
24/06:30pm 37.2 35.0 6.3 15 17.2 NW 7 15 4 8 1005.6 1004.8 0.0
24/06:00pm 36.5 33.8 5.7 15 17.0 N 9 17 5 9 1005.9 1005.2 0.0
24/05:30pm 36.9 33.9 6.0 15 17.1 NNW 11 22 6 12 1006.2 1005.5 0.0
24/05:00pm 36.4 33.3 7.4 17 16.4 N 13 26 7 14 1006.6 1005.9 0.0
24/04:30pm 36.1 34.3 8.0 18 16.0 NNW 7 17 4 9 1006.9 1006.2 0.0
24/04:00pm 35.0 33.0 8.7 20 15.1 N 9 15 5 8 1007.4 1006.6 0.0
24/03:30pm 34.8 32.0 8.5 20 15.0 N 13 20 7 11 1007.8 1007.0 0.0
24/03:00pm 34.6 32.3 11.7 25 13.7 E 15 22 8 12 1008.2 1007.4 0.0
24/02:30pm 34.6 33.2 12.3 26 13.5 ENE 11 19 6 10 1008.6 1007.8 0.0
24/02:00pm 33.9 32.9 12.3 27 13.0 E 9 15 5 8 1009.1 1008.3 0.0
24/01:30pm 33.3 31.9 13.4 30 12.1 ESE 13 19 7 10 1009.5 1008.8 0.0
24/01:00pm 33.2 32.7 12.2 28 12.6 E 6 11 3 6 1009.8 1009.1 0.0
24/12:30pm 32.0 31.5 12.8 31 11.6 ENE 7 11 4 6 1010.2 1009.5 0.0
24/12:00pm 31.3 31.0 12.6 31 11.2 ENE 6 11 3 6 1010.4 1009.7 0.0
24/11:30am 30.6 31.9 16.2 41 9.1 ESE 4 6 2 3 1010.7 1010.0 0.0
24/11:00am 28.4 29.4 16.3 47 7.6 ESE 6 7 3 4 1010.9 1010.2 0.0
24/10:30am 27.8 28.3 15.5 47 7.6 ESE 7 9 4 5 1011.0 1010.3 0.0
24/10:00am 25.6 25.9 14.4 50 6.7 ESE 6 7 3 4 1011.3 1010.6 0.0
24/09:30am 24.8 25.5 14.6 53 6.1 SE 4 6 2 3 1011.4 1010.7 0.0
24/09:00am 22.5 23.0 14.1 59 5.0 NNW 4 6 2 3 1011.6 1010.8 0.0
24/08:30am 20.7 21.0 13.4 63 4.2 N 4 6 2 3 1011.3 1010.6 0.0
24/08:00am 18.8 19.7 12.8 68 3.4 CALM 0 0 0 0 1011.0 1010.3 0.0
24/07:30am 16.8 15.8 12.3 75 2.5 N 9 11 5 6 1010.6 1009.9 0.0
24/07:00am 15.4 13.9 12.0 80 1.9 N 11 13 6 7 1010.2 1009.5 0.0
24/06:30am 14.8 13.4 12.1 84 1.5 N 11 13 6 7 1010.1 1009.4 0.0
24/06:00am 14.1 13.3 11.6 85 1.4 N 7 9 4 5 1010.1 1009.4 0.0
24/05:30am 14.4 12.6 12.1 86 1.3 N 13 15 7 8 1009.8 1009.1 0.0
24/05:00am 14.1 13.2 11.4 84 1.5 NNW 7 7 4 4 1009.8 1009.1 0.0
24/04:30am 14.3 13.7 11.6 84 1.5 N 6 9 3 5 1009.8 1009.1 0.0
24/04:00am 14.5 14.0 12.0 85 1.4 N 6 7 3 4 1009.8 1009.1 0.0
24/03:30am 15.0 14.5 12.7 86 1.3 N 7 9 4 5 1010.1 1009.4 0.0
24/03:00am 14.3 13.4 12.5 89 1.0 N 9 11 5 6 1010.2 1009.5 0.0
24/02:30am 13.5 12.9 11.6 88 1.0 N 6 7 3 4 1010.7 1010.0 0.0
24/02:00am 14.0 13.3 11.9 87 1.1 N 7 7 4 4 1010.8 1010.1 0.0
24/01:30am 14.1 13.5 11.8 86 1.2 N 6 7 3 4 1011.1 1010.4 0.0
24/01:00am 14.2 14.0 11.9 86 1.3 NNE 4 4 2 2 1011.6 1010.8 0.0
24/12:30am 14.2 13.3 11.5 84 1.5 NNE 7 9 4 5 1012.0 1011.2 0.0
24/12:00am 14.8 14.7 12.1 84 1.5 NE 4 6 2 3 1012.6 1011.8 0.0
 
Date/Time
EDT
Temp
°C
App
Temp
°C
Dew
Point
°C
Rel
Hum
%
Delta-T
°C
Wind Press
QNH
hPa
Press
MSL
hPa
Rain since
9am
mm
Dir  Spd
km/h
Gust
km/h
Spd
kts
Gust
kts
23/11:30pm 14.5 14.2 11.5 82 1.6 NNE 4 4 2 2 1012.8 1012.0 0.0
23/11:00pm 15.4 15.7 12.2 81 1.8 NE 2 4 1 2 1013.2 1012.5 0.0
23/10:30pm 15.7 15.3 12.3 80 1.9 ENE 6 7 3 4 1013.2 1012.5 0.0
23/10:00pm 15.9 15.3 12.3 79 2.0 ENE 7 9 4 5 1013.2 1012.5 0.0
23/09:30pm 16.7 16.2 12.5 76 2.3 ESE 7 9 4 5 1012.9 1012.1 0.0
23/09:00pm 17.1 16.4 12.0 72 2.8 ESE 7 9 4 5 1012.6 1011.8 0.0
23/08:30pm 18.4 16.6 12.2 67 3.5 ESE 13 17 7 9 1012.2 1011.4 0.0
23/08:00pm 20.1 18.0 12.3 61 4.4 SE 15 17 8 9 1012.0 1011.2 0.0
23/07:30pm 22.1 20.5 12.9 56 5.3 SSE 13 19 7 10 1011.6 1010.8 0.0
23/07:00pm 24.1 21.6 13.6 52 6.2 SE 19 24 10 13 1010.8 1010.1 0.0
23/06:30pm 25.3 23.3 13.8 49 6.8 SE 17 22 9 12 1010.5 1009.8 0.0
23/06:00pm 25.0 22.4 13.9 50 6.6 ESE 20 28 11 15 1010.5 1009.8 0.0
23/05:30pm 26.9 24.9 14.0 45 7.7 ESE 17 24 9 13 1010.4 1009.7 0.0
23/05:00pm 27.4 26.2 14.1 44 8.0 ESE 13 19 7 10 1010.4 1009.7 0.0
23/04:30pm 26.9 25.8 14.3 46 7.6 SE 13 20 7 11 1010.5 1009.8 0.0
23/04:00pm 26.6 25.2 14.4 47 7.4 ESE 15 22 8 12 1010.8 1010.1 0.0
23/03:30pm 26.8 25.7 14.2 46 7.6 SE 13 19 7 10 1011.2 1010.5 0.0
23/03:00pm 26.4 25.3 14.2 47 7.3 ESE 13 22 7 12 1011.6 1010.8 0.0
23/02:30pm 26.9 25.5 14.6 46 7.5 SE 15 20 8 11 1011.9 1011.1 0.0
23/02:00pm 26.7 25.8 13.8 45 7.7 SSE 11 20 6 11 1011.8 1011.0 0.0
23/01:30pm 26.5 25.7 12.9 43 8.0 SSE 9 17 5 9 1012.0 1011.2 0.0
23/01:00pm 26.0 25.5 12.5 43 7.9 SE 7 15 4 8 1012.4 1011.6 0.0
23/12:30pm 24.7 23.3 12.3 46 7.2 ESE 11 17 6 9 1012.7 1011.9 0.0
23/12:00pm 24.5 23.7 12.8 48 6.8 SE 9 15 5 8 1012.9 1012.1 0.0
23/11:30am 23.3 22.4 12.6 51 6.2 ESE 9 17 5 9 1013.2 1012.5 0.0
23/11:00am 22.0 20.9 12.0 53 5.7 ESE 9 15 5 8 1013.2 1012.5 0.0
23/10:30am 21.4 20.9 12.8 58 4.9 ESE 7 13 4 7 1013.1 1012.3 0.0
23/10:00am 20.5 20.0 12.7 61 4.5 E 7 17 4 9 1012.9 1012.1 0.0
23/09:30am 19.5 18.7 12.8 65 3.8 ENE 9 13 5 7 1013.0 1012.2 0.0
23/09:00am 18.2 17.7 12.6 70 3.2 ENE 7 13 4 7 1013.0 1012.2 0.0
23/08:30am 16.9 15.9 12.2 74 2.6 NE 9 13 5 7 1012.9 1012.1 0.0
23/08:00am 16.0 15.0 12.4 79 2.0 ENE 9 13 5 7 1012.9 1012.1 0.0
23/07:30am 15.0 14.3 12.1 83 1.6 NE 7 9 4 5 1012.9 1012.1 0.0
23/07:00am 14.5 14.0 12.0 85 1.4 ENE 6 9 3 5 1012.4 1011.6 0.0
23/06:30am 14.3 13.8 12.0 86 1.3 ENE 6 6 3 3 1012.1 1011.3 0.0
23/06:00am 14.4 13.9 12.1 86 1.3 E 6 9 3 5 1012.0 1011.2 0.0
23/05:30am 14.3 13.8 12.2 87 1.2 E 6 7 3 4 1011.8 1011.0 0.0
23/05:00am 14.5 14.1 12.5 88 1.1 E 6 6 3 3 1011.7 1010.9 0.0
23/04:30am 14.5 14.5 12.5 88 1.1 ESE 4 6 2 3 1011.6 1010.8 0.0
23/04:00am 14.1 14.1 12.3 89 1.0 E 4 6 2 3 1011.7 1010.9 0.0
23/03:30am 13.9 13.7 11.8 87 1.1 ENE 4 4 2 2 1011.6 1010.8 0.0
23/03:00am 14.3 14.2 12.2 87 1.2 E 4 6 2 3 1012.0 1011.2 0.0
23/02:30am 14.7 14.4 12.6 87 1.2 E 6 9 3 5 1012.2 1011.4 0.0
23/02:00am 14.9 14.6 12.6 86 1.3 E 6 9 3 5 1012.6 1011.8 0.0
23/01:30am 15.0 14.5 12.7 86 1.3 E 7 11 4 6 1012.7 1011.9 0.0
23/01:00am 15.2 14.5 13.1 87 1.2 E 9 13 5 7 1013.1 1012.3 0.0
23/12:30am 15.2 14.5 13.1 87 1.2 E 9 11 5 6 1013.2 1012.5 0.0
23/12:00am 15.3 15.0 13.3 88 1.1 ESE 7 13 4 7 1013.4 1012.7 0.0

Latest Capital City Observations: Canberra | Sydney | Melbourne | Brisbane | Adelaide | Perth | Hobart | Darwin

Other formats

Comma delimited format used in spreadsheet applications
http://www.bom.gov.au/fwo/IDV60901/IDV60901.94863.axf

JavaScript Object Notation format (JSON) in row-major order
http://www.bom.gov.au/fwo/IDV60901/IDV60901.94863.json

Data quality

Most of these data are generated automatically and are frequently updated. Quality checks on data are not normally performed. It is possible for incorrect values to appear. Refer to information at About Latest Weather Observations and please check the disclaimer before using these data.